TAM36ML SBSV-SBSP
Flight info
| Callsign | TAM36ML |
|---|---|
| Flight time | N/A |
| Altitude | 36000 |
| Route | GEKEV UZ30 ENTIT |
| Aircraft | A321/M-SDE3FGHIRWY/LB1 |
Departure
| Time | N/A |
|---|---|
| Airport | Deputado Luiz Eduardo Magalhães International Airport (SBSV) |
Arrival
| Time | 2026-05-03 21:37 |
|---|---|
| Airport | Congonhas–Deputado Freitas Nobre Airport (SBSP) |
| Time | Latitude | Longitude | Altitude | Speed | Heading |
|---|---|---|---|---|---|
| 2026-05-03 20:15 | -16.31747 | -42.18574 | 36050 ft | 435 kts | 220° |
| 2026-05-03 20:15 | -16.36496 | -42.22473 | 36046 ft | 435 kts | 220° |
| 2026-05-03 20:16 | -16.41246 | -42.26375 | 36045 ft | 435 kts | 220° |
| 2026-05-03 20:16 | -16.45996 | -42.30266 | 36043 ft | 435 kts | 220° |
| 2026-05-03 20:17 | -16.50780 | -42.34196 | 36045 ft | 435 kts | 220° |
| 2026-05-03 20:17 | -16.55535 | -42.38103 | 36046 ft | 435 kts | 220° |
| 2026-05-03 20:18 | -16.60285 | -42.42007 | 36051 ft | 435 kts | 221° |
| 2026-05-03 20:18 | -16.65021 | -42.45921 | 36049 ft | 434 kts | 221° |
| 2026-05-03 20:19 | -16.69757 | -42.49829 | 36050 ft | 434 kts | 221° |
| 2026-05-03 20:19 | -16.74501 | -42.53735 | 36052 ft | 434 kts | 221° |
| 2026-05-03 20:20 | -16.79239 | -42.57644 | 36049 ft | 434 kts | 221° |
| 2026-05-03 20:20 | -16.83981 | -42.61547 | 36054 ft | 434 kts | 221° |
| 2026-05-03 20:21 | -16.88710 | -42.65460 | 36050 ft | 434 kts | 221° |
| 2026-05-03 20:21 | -16.93435 | -42.69365 | 36051 ft | 433 kts | 221° |
| 2026-05-03 20:22 | -16.98163 | -42.73272 | 36055 ft | 433 kts | 221° |
| 2026-05-03 20:22 | -17.02893 | -42.77179 | 36056 ft | 433 kts | 221° |
| 2026-05-03 20:23 | -17.07608 | -42.81090 | 36054 ft | 433 kts | 221° |
| 2026-05-03 20:23 | -17.12324 | -42.84999 | 36055 ft | 433 kts | 221° |
| 2026-05-03 20:24 | -17.17047 | -42.88903 | 36059 ft | 433 kts | 221° |
| 2026-05-03 20:24 | -17.21768 | -42.92818 | 36057 ft | 433 kts | 221° |
| 2026-05-03 20:25 | -17.26480 | -42.96738 | 36064 ft | 433 kts | 221° |
| 2026-05-03 20:25 | -17.31194 | -43.00657 | 36068 ft | 433 kts | 221° |
| 2026-05-03 20:26 | -17.35914 | -43.04578 | 36068 ft | 432 kts | 221° |
| 2026-05-03 20:26 | -17.40617 | -43.08487 | 36067 ft | 432 kts | 221° |
| 2026-05-03 20:27 | -17.45321 | -43.12401 | 36073 ft | 432 kts | 221° |
| 2026-05-03 20:27 | -17.50022 | -43.16312 | 36072 ft | 431 kts | 221° |
| 2026-05-03 20:28 | -17.54715 | -43.20222 | 36071 ft | 431 kts | 222° |
| 2026-05-03 20:28 | -17.59402 | -43.24131 | 36074 ft | 431 kts | 222° |
| 2026-05-03 20:29 | -17.64089 | -43.28045 | 36073 ft | 431 kts | 222° |
| 2026-05-03 20:29 | -17.68768 | -43.31961 | 36076 ft | 430 kts | 222° |
| 2026-05-03 20:30 | -17.73450 | -43.35869 | 36076 ft | 430 kts | 222° |
| 2026-05-03 20:30 | -17.78129 | -43.39771 | 36077 ft | 430 kts | 222° |
| 2026-05-03 20:31 | -17.82796 | -43.43685 | 36078 ft | 430 kts | 222° |
| 2026-05-03 20:31 | -17.87463 | -43.47601 | 36082 ft | 429 kts | 222° |
| 2026-05-03 20:32 | -17.92127 | -43.51507 | 36091 ft | 429 kts | 222° |
| 2026-05-03 20:32 | -17.96788 | -43.55416 | 36090 ft | 428 kts | 222° |
| 2026-05-03 20:33 | -18.01439 | -43.59316 | 36096 ft | 428 kts | 222° |
| 2026-05-03 20:33 | -18.06089 | -43.63216 | 36096 ft | 427 kts | 222° |
| 2026-05-03 20:34 | -18.10725 | -43.67119 | 36096 ft | 427 kts | 222° |
| 2026-05-03 20:34 | -18.15359 | -43.71019 | 36096 ft | 426 kts | 222° |
| 2026-05-03 20:35 | -18.19987 | -43.74912 | 36093 ft | 426 kts | 222° |
| 2026-05-03 20:35 | -18.23830 | -43.78149 | 36093 ft | 426 kts | 223° |
| 2026-05-03 20:36 | -18.28444 | -43.82043 | 36091 ft | 425 kts | 223° |
| 2026-05-03 20:36 | -18.33057 | -43.85932 | 36085 ft | 425 kts | 223° |
| 2026-05-03 20:37 | -18.37676 | -43.89821 | 36080 ft | 424 kts | 223° |
| 2026-05-03 20:37 | -18.42280 | -43.93708 | 36072 ft | 424 kts | 223° |
| 2026-05-03 20:38 | -18.46886 | -43.97596 | 36070 ft | 424 kts | 223° |
| 2026-05-03 20:38 | -18.51483 | -44.01484 | 36065 ft | 424 kts | 223° |
| 2026-05-03 20:39 | -18.56075 | -44.05377 | 36066 ft | 423 kts | 223° |
| 2026-05-03 20:39 | -18.60663 | -44.09268 | 36061 ft | 423 kts | 223° |
| 2026-05-03 20:40 | -18.65255 | -44.13153 | 36059 ft | 423 kts | 223° |
| 2026-05-03 20:40 | -18.69841 | -44.17037 | 36054 ft | 423 kts | 223° |
| 2026-05-03 20:41 | -18.74427 | -44.20926 | 36050 ft | 423 kts | 223° |
| 2026-05-03 20:41 | -18.79008 | -44.24814 | 36050 ft | 423 kts | 223° |
| 2026-05-03 20:42 | -18.83595 | -44.28709 | 36050 ft | 423 kts | 223° |
| 2026-05-03 20:42 | -18.88170 | -44.32609 | 36051 ft | 423 kts | 223° |
| 2026-05-03 20:43 | -18.92747 | -44.36504 | 36051 ft | 423 kts | 223° |
| 2026-05-03 20:43 | -18.97319 | -44.40400 | 36051 ft | 422 kts | 223° |
| 2026-05-03 20:44 | -19.01887 | -44.44300 | 36057 ft | 422 kts | 223° |
| 2026-05-03 20:44 | -19.06455 | -44.48208 | 36059 ft | 422 kts | 223° |
| 2026-05-03 20:45 | -19.11016 | -44.52106 | 36061 ft | 422 kts | 223° |
| 2026-05-03 20:45 | -19.15584 | -44.56008 | 36060 ft | 422 kts | 223° |
| 2026-05-03 20:46 | -19.20140 | -44.59908 | 36061 ft | 421 kts | 223° |
| 2026-05-03 20:46 | -19.24698 | -44.63810 | 36065 ft | 421 kts | 223° |
| 2026-05-03 20:47 | -19.29259 | -44.67707 | 36064 ft | 421 kts | 223° |
| 2026-05-03 20:47 | -19.33815 | -44.71606 | 36064 ft | 421 kts | 223° |
| 2026-05-03 20:48 | -19.38366 | -44.75508 | 36061 ft | 421 kts | 224° |
| 2026-05-03 20:48 | -19.42919 | -44.79414 | 36054 ft | 421 kts | 223° |
| 2026-05-03 20:49 | -19.47470 | -44.83314 | 36068 ft | 421 kts | 224° |
| 2026-05-03 20:49 | -19.52009 | -44.87221 | 36061 ft | 420 kts | 224° |
| 2026-05-03 20:50 | -19.56551 | -44.91125 | 36064 ft | 420 kts | 224° |
| 2026-05-03 20:50 | -19.61094 | -44.95038 | 36067 ft | 420 kts | 224° |
| 2026-05-03 20:51 | -19.65627 | -44.98951 | 36062 ft | 420 kts | 224° |
| 2026-05-03 20:51 | -19.70159 | -45.02874 | 36070 ft | 420 kts | 224° |
| 2026-05-03 20:52 | -19.74680 | -45.06798 | 36071 ft | 420 kts | 224° |
| 2026-05-03 20:52 | -19.79201 | -45.10715 | 36069 ft | 420 kts | 224° |
| 2026-05-03 20:53 | -19.83733 | -45.14627 | 36072 ft | 420 kts | 224° |
| 2026-05-03 20:53 | -19.88327 | -45.18617 | 36060 ft | 434 kts | 224° |
| 2026-05-03 20:54 | -19.93063 | -45.22734 | 36059 ft | 443 kts | 224° |
| 2026-05-03 20:54 | -20.00252 | -45.28964 | 36060 ft | 445 kts | 224° |
| 2026-05-03 20:55 | -20.05040 | -45.33120 | 36062 ft | 444 kts | 224° |
| 2026-05-03 20:55 | -20.09822 | -45.37280 | 36070 ft | 444 kts | 224° |
| 2026-05-03 20:56 | -20.14610 | -45.41442 | 36076 ft | 445 kts | 224° |
| 2026-05-03 20:56 | -20.19399 | -45.45615 | 36083 ft | 445 kts | 224° |
| 2026-05-03 20:57 | -20.24182 | -45.49790 | 36086 ft | 445 kts | 224° |
| 2026-05-03 20:57 | -20.28962 | -45.53968 | 36093 ft | 445 kts | 224° |
| 2026-05-03 20:58 | -20.33746 | -45.58148 | 36091 ft | 445 kts | 224° |
| 2026-05-03 20:58 | -20.38529 | -45.62327 | 36093 ft | 444 kts | 224° |
| 2026-05-03 20:59 | -20.43306 | -45.66504 | 36090 ft | 444 kts | 224° |
| 2026-05-03 20:59 | -20.48079 | -45.70688 | 36094 ft | 444 kts | 224° |
| 2026-05-03 21:00 | -20.51271 | -45.73487 | 36097 ft | 444 kts | 224° |
| 2026-05-03 21:00 | -20.57620 | -45.79060 | 36099 ft | 444 kts | 224° |
| 2026-05-03 21:01 | -20.62396 | -45.83238 | 36098 ft | 443 kts | 224° |
| 2026-05-03 21:01 | -20.67156 | -45.87417 | 36103 ft | 443 kts | 224° |
| 2026-05-03 21:02 | -20.71906 | -45.91604 | 36102 ft | 443 kts | 224° |
| 2026-05-03 21:02 | -20.76652 | -45.95790 | 36104 ft | 442 kts | 224° |
| 2026-05-03 21:03 | -20.81397 | -45.99974 | 36103 ft | 442 kts | 224° |
| 2026-05-03 21:03 | -20.86143 | -46.04148 | 36105 ft | 441 kts | 224° |
| 2026-05-03 21:04 | -20.90880 | -46.08316 | 36109 ft | 441 kts | 224° |
| 2026-05-03 21:04 | -20.95618 | -46.12488 | 36111 ft | 442 kts | 222° |
| 2026-05-03 21:05 | -21.01134 | -46.15548 | 36109 ft | 456 kts | 204° |
| 2026-05-03 21:05 | -21.07156 | -46.17666 | 36110 ft | 456 kts | 204° |
| 2026-05-03 21:06 | -21.13179 | -46.19803 | 36107 ft | 456 kts | 205° |
| 2026-05-03 21:06 | -21.19201 | -46.21932 | 36115 ft | 456 kts | 204° |
| 2026-05-03 21:07 | -21.25253 | -46.23993 | 36118 ft | 456 kts | 204° |
| 2026-05-03 21:07 | -21.31347 | -46.26046 | 36132 ft | 456 kts | 204° |
| 2026-05-03 21:08 | -21.37359 | -46.28085 | 36130 ft | 456 kts | 204° |
| 2026-05-03 21:08 | -21.43403 | -46.30141 | 36136 ft | 456 kts | 204° |
| 2026-05-03 21:09 | -21.49447 | -46.32204 | 36139 ft | 455 kts | 204° |
| 2026-05-03 21:09 | -21.55477 | -46.34265 | 36143 ft | 455 kts | 204° |
| 2026-05-03 21:10 | -21.61503 | -46.36325 | 36151 ft | 454 kts | 204° |
| 2026-05-03 21:10 | -21.67521 | -46.38394 | 36158 ft | 454 kts | 205° |
| 2026-05-03 21:11 | -21.73496 | -46.40566 | 36163 ft | 452 kts | 206° |
| 2026-05-03 21:11 | -21.79430 | -46.42785 | 36166 ft | 452 kts | 206° |
| 2026-05-03 21:12 | -21.85375 | -46.44994 | 36164 ft | 452 kts | 206° |
| 2026-05-03 21:12 | -21.91322 | -46.47181 | 35883 ft | 452 kts | 206° |
| 2026-05-03 21:13 | -21.94284 | -46.48266 | 35629 ft | 450 kts | 206° |
| 2026-05-03 21:13 | -21.97256 | -46.49354 | 35137 ft | 451 kts | 206° |
| 2026-05-03 21:13 | -22.00231 | -46.50447 | 34568 ft | 453 kts | 206° |
| 2026-05-03 21:13 | -22.03223 | -46.51551 | 33971 ft | 456 kts | 206° |
| 2026-05-03 21:14 | -22.06229 | -46.52662 | 33362 ft | 459 kts | 206° |
| 2026-05-03 21:14 | -22.09257 | -46.53781 | 32774 ft | 461 kts | 206° |
| 2026-05-03 21:14 | -22.12300 | -46.54906 | 32180 ft | 462 kts | 206° |
| 2026-05-03 21:14 | -22.14357 | -46.55667 | 31779 ft | 463 kts | 206° |
| 2026-05-03 21:15 | -22.18402 | -46.57163 | 30992 ft | 465 kts | 206° |
| 2026-05-03 21:15 | -22.20471 | -46.57926 | 30602 ft | 465 kts | 205° |
| 2026-05-03 21:15 | -22.23535 | -46.59054 | 29972 ft | 466 kts | 205° |
| 2026-05-03 21:15 | -22.26610 | -46.60188 | 29370 ft | 468 kts | 205° |
| 2026-05-03 21:16 | -22.29694 | -46.61328 | 28787 ft | 469 kts | 205° |
| 2026-05-03 21:16 | -22.32787 | -46.62474 | 28195 ft | 470 kts | 205° |
| 2026-05-03 21:16 | -22.35886 | -46.63622 | 27619 ft | 472 kts | 205° |
| 2026-05-03 21:16 | -22.38992 | -46.64780 | 27034 ft | 472 kts | 206° |
| 2026-05-03 21:17 | -22.41917 | -46.66313 | 26441 ft | 463 kts | 218° |
| 2026-05-03 21:17 | -22.44414 | -46.68461 | 25879 ft | 456 kts | 227° |
| 2026-05-03 21:17 | -22.46726 | -46.70792 | 25337 ft | 454 kts | 227° |
| 2026-05-03 21:17 | -22.49027 | -46.73112 | 24775 ft | 450 kts | 227° |
| 2026-05-03 21:18 | -22.51276 | -46.75382 | 24209 ft | 447 kts | 227° |
| 2026-05-03 21:18 | -22.53539 | -46.77667 | 23622 ft | 443 kts | 226° |
| 2026-05-03 21:18 | -22.55780 | -46.79930 | 23018 ft | 439 kts | 226° |
| 2026-05-03 21:18 | -22.58007 | -46.82181 | 22850 ft | 438 kts | 226° |
| 2026-05-03 21:19 | -22.60230 | -46.84433 | 22664 ft | 438 kts | 226° |
| 2026-05-03 21:19 | -22.62453 | -46.86684 | 22447 ft | 436 kts | 226° |
| 2026-05-03 21:19 | -22.64664 | -46.88924 | 22220 ft | 435 kts | 226° |
| 2026-05-03 21:19 | -22.66879 | -46.91157 | 22015 ft | 434 kts | 225° |
| 2026-05-03 21:20 | -22.69329 | -46.93085 | 21792 ft | 437 kts | 216° |
| 2026-05-03 21:20 | -22.71892 | -46.94843 | 21563 ft | 436 kts | 216° |
| 2026-05-03 21:20 | -22.74455 | -46.96588 | 21365 ft | 435 kts | 216° |
| 2026-05-03 21:20 | -22.77009 | -46.98321 | 21146 ft | 433 kts | 216° |
| 2026-05-03 21:21 | -22.79559 | -47.00050 | 20935 ft | 432 kts | 215° |
| 2026-05-03 21:21 | -22.82106 | -47.01782 | 20716 ft | 431 kts | 215° |
| 2026-05-03 21:21 | -22.84638 | -47.03505 | 20505 ft | 429 kts | 216° |
| 2026-05-03 21:21 | -22.87130 | -47.05206 | 20293 ft | 428 kts | 215° |
| 2026-05-03 21:22 | -22.89648 | -47.06926 | 19950 ft | 427 kts | 215° |
| 2026-05-03 21:22 | -22.92152 | -47.08626 | 19273 ft | 423 kts | 214° |
| 2026-05-03 21:22 | -22.94640 | -47.10307 | 18701 ft | 419 kts | 214° |
| 2026-05-03 21:22 | -22.97102 | -47.11970 | 18136 ft | 408 kts | 214° |
| 2026-05-03 21:23 | -22.99416 | -47.13516 | 17733 ft | 375 kts | 212° |
| 2026-05-03 21:23 | -23.01747 | -47.14600 | 16982 ft | 360 kts | 198° |
| 2026-05-03 21:23 | -23.04184 | -47.14954 | 16448 ft | 347 kts | 183° |
| 2026-05-03 21:23 | -23.06573 | -47.14664 | 16037 ft | 346 kts | 172° |
| 2026-05-03 21:24 | -23.08924 | -47.14145 | 15582 ft | 341 kts | 172° |
| 2026-05-03 21:24 | -23.11197 | -47.13643 | 15091 ft | 329 kts | 172° |
| 2026-05-03 21:24 | -23.13400 | -47.13162 | 14678 ft | 318 kts | 172° |
| 2026-05-03 21:24 | -23.15546 | -47.12692 | 14224 ft | 313 kts | 172° |
| 2026-05-03 21:25 | -23.17673 | -47.12229 | 13758 ft | 311 kts | 172° |
| 2026-05-03 21:25 | -23.19790 | -47.11767 | 13314 ft | 309 kts | 172° |
| 2026-05-03 21:25 | -23.21893 | -47.11305 | 12884 ft | 307 kts | 171° |
| 2026-05-03 21:25 | -23.23958 | -47.10844 | 12600 ft | 295 kts | 172° |
| 2026-05-03 21:26 | -23.25920 | -47.10404 | 12336 ft | 283 kts | 172° |
| 2026-05-03 21:26 | -23.27831 | -47.09983 | 11890 ft | 278 kts | 171° |
| 2026-05-03 21:26 | -23.29691 | -47.09578 | 11416 ft | 276 kts | 171° |
| 2026-05-03 21:26 | -23.31568 | -47.09171 | 10926 ft | 274 kts | 171° |
| 2026-05-03 21:27 | -23.33430 | -47.08767 | 10423 ft | 271 kts | 171° |
| 2026-05-03 21:27 | -23.35242 | -47.08370 | 10167 ft | 260 kts | 171° |
| 2026-05-03 21:27 | -23.37015 | -47.07982 | 10126 ft | 260 kts | 171° |
| 2026-05-03 21:27 | -23.38796 | -47.07592 | 9862 ft | 261 kts | 171° |
| 2026-05-03 21:28 | -23.40511 | -47.06949 | 9494 ft | 262 kts | 153° |
| 2026-05-03 21:28 | -23.41967 | -47.05788 | 9178 ft | 258 kts | 136° |
| 2026-05-03 21:28 | -23.43029 | -47.04256 | 8940 ft | 249 kts | 119° |
| 2026-05-03 21:28 | -23.43635 | -47.02551 | 8715 ft | 231 kts | 105° |
| 2026-05-03 21:29 | -23.44049 | -47.00931 | 8468 ft | 217 kts | 105° |
| 2026-05-03 21:29 | -23.44454 | -46.99373 | 8096 ft | 211 kts | 105° |
| 2026-05-03 21:29 | -23.44854 | -46.97844 | 7861 ft | 209 kts | 105° |
| 2026-05-03 21:29 | -23.45249 | -46.96332 | 7661 ft | 208 kts | 105° |
| 2026-05-03 21:30 | -23.45643 | -46.94825 | 7460 ft | 205 kts | 105° |
| 2026-05-03 21:30 | -23.46023 | -46.93369 | 7271 ft | 195 kts | 105° |
| 2026-05-03 21:30 | -23.46388 | -46.91964 | 7088 ft | 192 kts | 105° |
| 2026-05-03 21:30 | -23.46750 | -46.90574 | 6920 ft | 190 kts | 105° |
| 2026-05-03 21:31 | -23.47107 | -46.89201 | 6737 ft | 187 kts | 105° |
| 2026-05-03 21:31 | -23.47458 | -46.87843 | 6561 ft | 186 kts | 105° |
| 2026-05-03 21:31 | -23.47801 | -46.86514 | 6381 ft | 178 kts | 105° |
| 2026-05-03 21:31 | -23.48135 | -46.85226 | 6216 ft | 175 kts | 106° |
| 2026-05-03 21:32 | -23.48464 | -46.83956 | 6052 ft | 173 kts | 106° |
| 2026-05-03 21:32 | -23.48792 | -46.82694 | 5895 ft | 176 kts | 106° |
| 2026-05-03 21:32 | -23.49129 | -46.81395 | 5713 ft | 180 kts | 107° |
| 2026-05-03 21:32 | -23.49470 | -46.80080 | 5561 ft | 180 kts | 106° |
| 2026-05-03 21:33 | -23.49808 | -46.78772 | 5394 ft | 179 kts | 107° |
| 2026-05-03 21:33 | -23.50145 | -46.77464 | 5231 ft | 178 kts | 107° |
| 2026-05-03 21:33 | -23.50480 | -46.76170 | 5065 ft | 177 kts | 107° |
| 2026-05-03 21:33 | -23.50817 | -46.74883 | 4893 ft | 178 kts | 109° |
| 2026-05-03 21:34 | -23.51386 | -46.73700 | 4718 ft | 176 kts | 129° |
| 2026-05-03 21:34 | -23.52282 | -46.72822 | 4561 ft | 173 kts | 147° |
| 2026-05-03 21:34 | -23.53292 | -46.72128 | 4410 ft | 169 kts | 146° |
| 2026-05-03 21:34 | -23.54265 | -46.71456 | 4340 ft | 159 kts | 146° |
| 2026-05-03 21:35 | -23.55154 | -46.70843 | 4200 ft | 146 kts | 146° |
| 2026-05-03 21:35 | -23.55992 | -46.70264 | 4028 ft | 141 kts | 146° |
| 2026-05-03 21:35 | -23.56810 | -46.69698 | 3891 ft | 138 kts | 146° |
| 2026-05-03 21:35 | -23.57619 | -46.69139 | 3715 ft | 137 kts | 146° |
| 2026-05-03 21:36 | -23.58421 | -46.68585 | 3526 ft | 136 kts | 147° |
| 2026-05-03 21:36 | -23.59142 | -46.68086 | 3355 ft | 137 kts | 147° |
| 2026-05-03 21:36 | -23.59947 | -46.67529 | 3156 ft | 137 kts | 148° |
| 2026-05-03 21:36 | -23.60750 | -46.66974 | 2949 ft | 137 kts | 148° |
| 2026-05-03 21:37 | -23.61550 | -46.66415 | 2768 ft | 137 kts | 148° |
| 2026-05-03 21:37 | -23.62348 | -46.65865 | 2610 ft | 133 kts | 148° |
| 2026-05-03 21:37 | -23.63006 | -46.65414 | 2610 ft | 75 kts | 147° |
| 2026-05-03 21:37 | -23.63226 | -46.65260 | 2610 ft | 28 kts | 147° |
| 2026-05-03 21:38 | -23.63357 | -46.65201 | 2607 ft | 15 kts | 177° |
| 2026-05-03 21:38 | -23.63410 | -46.65250 | 2602 ft | 6 kts | 262° |
| 2026-05-03 21:38 | -23.63399 | -46.65279 | 2602 ft | 2 kts | 307° |
| 2026-05-03 21:38 | -23.63365 | -46.65306 | 2602 ft | 11 kts | 327° |
| 2026-05-03 21:39 | -23.63273 | -46.65369 | 2602 ft | 20 kts | 329° |
| 2026-05-03 21:39 | -23.63161 | -46.65449 | 2602 ft | 17 kts | 326° |
| 2026-05-03 21:39 | -23.63077 | -46.65505 | 2602 ft | 11 kts | 332° |
| 2026-05-03 21:39 | -23.63013 | -46.65522 | 2603 ft | 11 kts | 347° |
| 2026-05-03 21:40 | -23.62910 | -46.65586 | 2604 ft | 21 kts | 327° |
| 2026-05-03 21:40 | -23.62798 | -46.65663 | 2603 ft | 16 kts | 327° |
| 2026-05-03 21:40 | -23.62740 | -46.65702 | 2603 ft | 4 kts | 328° |
| 2026-05-03 21:40 | -23.62720 | -46.65723 | 2602 ft | 7 kts | 293° |
| 2026-05-03 21:41 | -23.62741 | -46.65781 | 2601 ft | 7 kts | 238° |
| 2026-05-03 21:41 | -23.62747 | -46.65792 | 2601 ft | 0 kts | 239° |